Time;durP1;ratioP1;P1;durP2;ratioP2;P2;SDS_P1;SDS_P2;PMS_P1;PMS_P2;Temp;Humidity;BMP_temperature;BMP_pressure;BME280_temperature;BME280_humidity;BME280_pressure;Samples;Min_cycle;Max_cycle;Signal;HPM_P1;HPM_P2
2023/12/14 00:02:45;;;;;;;3.13;2.67;;;18.10;92.10;;;;;;10518828;28;20512;-55
2023/12/14 00:07:47;;;;;;;4.07;2.70;;;18.10;92.20;;;;;;10519717;28;20059;-58
2023/12/14 00:12:52;;;;;;;4.65;3.42;;;18.00;92.30;;;;;;10521669;28;20059;-60
2023/12/14 00:17:54;;;;;;;3.53;2.60;;;17.50;91.60;;;;;;10509423;28;20126;-55
2023/12/14 00:22:56;;;;;;;4.32;2.97;;;18.00;92.10;;;;;;10509518;28;20044;-55
2023/12/14 00:27:59;;;;;;;3.95;3.38;;;18.00;92.10;;;;;;10515711;28;20055;-58
2023/12/14 00:33:02;;;;;;;4.78;2.75;;;18.00;91.70;;;;;;10524936;28;20887;-55
2023/12/14 00:38:03;;;;;;;3.80;2.47;;;17.50;92.50;;;;;;10519723;28;22304;-57
2023/12/14 00:43:07;;;;;;;3.08;2.17;;;17.80;91.60;;;;;;10524222;28;20236;-57
2023/12/14 00:48:09;;;;;;;3.78;2.97;;;17.90;92.00;;;;;;10525272;28;20074;-56
2023/12/14 00:53:11;;;;;;;4.47;2.90;;;17.80;91.40;;;;;;10523058;28;20063;-55
2023/12/14 00:58:14;;;;;;;3.17;2.72;;;17.90;91.90;;;;;;10526761;28;20055;-55
2023/12/14 01:03:16;;;;;;;5.68;3.55;;;17.90;91.70;;;;;;10524613;28;20075;-54
2023/12/14 01:08:18;;;;;;;8.75;3.40;;;18.00;91.60;;;;;;10539648;28;20051;-57
2023/12/14 01:13:22;;;;;;;5.93;3.53;;;18.00;91.40;;;;;;10527345;28;20778;-58
2023/12/14 01:18:24;;;;;;;10.98;3.75;;;18.00;91.30;;;;;;10538072;28;20050;-56
2023/12/14 01:23:26;;;;;;;5.93;2.90;;;18.00;91.30;;;;;;10531700;28;20788;-56
2023/12/14 01:28:30;;;;;;;4.22;2.50;;;17.90;91.50;;;;;;10531607;28;20490;-61
2023/12/14 01:33:32;;;;;;;6.30;3.25;;;17.80;91.50;;;;;;10531270;28;20855;-55
2023/12/14 01:38:34;;;;;;;5.35;3.15;;;17.90;91.40;;;;;;10526928;28;20052;-57
2023/12/14 01:43:37;;;;;;;3.53;2.38;;;17.90;91.20;;;;;;10521463;28;20060;-55
2023/12/14 01:48:39;;;;;;;6.28;2.97;;;18.00;91.00;;;;;;10527097;28;20071;-56
2023/12/14 01:53:41;;;;;;;3.28;2.50;;;17.90;91.00;;;;;;10523137;28;20600;-55
2023/12/14 01:58:44;;;;;;;2.70;2.28;;;18.00;90.90;;;;;;10515837;28;20079;-56
2023/12/14 02:03:47;;;;;;;5.68;2.78;;;17.90;90.80;;;;;;10528903;28;20186;-50
2023/12/14 02:08:49;;;;;;;7.03;3.17;;;17.90;90.90;;;;;;10520977;28;20882;-56
2023/12/14 02:13:52;;;;;;;6.50;3.25;;;17.90;90.80;;;;;;10509084;28;20063;-54
2023/12/14 02:18:55;;;;;;;4.25;3.20;;;17.90;90.70;;;;;;10513446;28;20623;-56
2023/12/14 02:23:58;;;;;;;6.13;3.13;;;17.80;90.80;;;;;;10518901;28;20047;-54
2023/12/14 02:29:00;;;;;;;4.82;2.63;;;17.80;90.60;;;;;;10525465;28;20120;-54
2023/12/14 02:34:02;;;;;;;6.35;2.60;;;17.60;91.10;;;;;;10525904;28;20075;-54
2023/12/14 02:39:06;;;;;;;4.35;2.10;;;16.70;92.30;;;;;;10530389;28;20391;-56
2023/12/14 02:44:08;;;;;;;4.82;2.88;;;17.00;92.20;;;;;;10520023;28;20055;-56
2023/12/14 02:49:10;;;;;;;6.32;2.83;;;17.30;87.50;;;;;;10526074;28;20048;-53
2023/12/14 02:54:13;;;;;;;3.15;2.00;;;16.80;91.80;;;;;;10521387;28;20087;-56
2023/12/14 02:59:15;;;;;;;7.03;2.30;;;17.00;92.10;;;;;;10520888;28;20050;-55
2023/12/14 03:04:17;;;;;;;5.00;2.47;;;17.10;91.80;;;;;;10516378;28;20151;-55
2023/12/14 03:09:20;;;;;;;5.20;2.05;;;17.20;91.30;;;;;;10517476;28;20968;-57
2023/12/14 03:14:22;;;;;;;4.97;2.60;;;17.20;91.30;;;;;;10518005;28;20068;-55
2023/12/14 03:19:24;;;;;;;5.90;1.95;;;17.20;91.10;;;;;;10520449;28;20532;-54
2023/12/14 03:24:28;;;;;;;4.13;2.17;;;17.40;90.40;;;;;;10515616;28;20079;-55
2023/12/14 03:29:30;;;;;;;3.90;2.00;;;17.40;90.70;;;;;;10520227;28;20059;-56
2023/12/14 03:34:32;;;;;;;4.75;1.92;;;17.40;91.00;;;;;;10518899;28;20065;-54
2023/12/14 03:39:35;;;;;;;5.38;2.15;;;17.60;90.40;;;;;;10519284;28;20791;-55
2023/12/14 03:44:37;;;;;;;6.18;2.80;;;17.60;90.30;;;;;;10518667;28;20056;-55
2023/12/14 03:49:39;;;;;;;6.25;2.10;;;17.60;90.20;;;;;;10514544;28;20067;-54
2023/12/14 03:54:42;;;;;;;3.40;2.10;;;17.60;89.60;;;;;;10506288;28;20212;-55
2023/12/14 04:15:31;;;;;;;6.20;1.92;;;17.50;90.00;;;;;;10491800;27;20715;-56
2023/12/14 04:20:34;;;;;;;5.55;2.15;;;17.60;90.10;;;;;;10501530;28;20104;-54
2023/12/14 04:25:36;;;;;;;6.65;2.55;;;17.60;89.90;;;;;;10499391;28;20742;-53
2023/12/14 04:30:39;;;;;;;4.07;1.90;;;17.60;89.70;;;;;;10509556;28;20078;-56
2023/12/14 04:35:41;;;;;;;6.82;1.83;;;17.70;89.40;;;;;;10503892;28;20867;-55
2023/12/14 04:40:43;;;;;;;3.20;1.95;;;17.50;89.60;;;;;;10495361;28;20558;-56
2023/12/14 04:45:46;;;;;;;2.05;1.42;;;17.60;89.30;;;;;;10498404;28;20125;-55
2023/12/14 04:50:48;;;;;;;4.30;1.73;;;17.70;89.10;;;;;;10512463;28;20059;-55
2023/12/14 04:55:50;;;;;;;5.15;1.55;;;17.50;88.00;;;;;;10509842;28;20183;-55
2023/12/14 05:00:53;;;;;;;3.67;1.23;;;17.60;89.20;;;;;;10506899;28;20055;-57
2023/12/14 05:05:56;;;;;;;6.28;1.52;;;17.50;89.10;;;;;;10510178;28;20080;-54
2023/12/14 05:10:58;;;;;;;;;;;17.70;88.30;;;;;;10513139;28;20068;-56
2023/12/14 05:16:02;;;;;;;5.70;1.45;;;17.90;87.50;;;;;;10510278;28;20036;-55
2023/12/14 05:21:04;;;;;;;2.35;0.98;;;18.00;86.70;;;;;;10495588;28;20449;-54
2023/12/14 05:26:06;;;;;;;1.52;1.23;;;18.10;86.50;;;;;;10480711;28;20056;-54
2023/12/14 05:31:10;;;;;;;2.30;1.05;;;18.20;86.40;;;;;;10481587;28;20708;-57
2023/12/14 05:36:12;;;;;;;3.50;1.25;;;18.20;86.40;;;;;;10469559;28;22785;-55
2023/12/14 05:41:14;;;;;;;3.97;1.50;;;18.20;86.50;;;;;;10476512;28;20151;-55
2023/12/14 05:46:24;;;;;;;3.25;1.05;;;18.20;86.50;;;;;;10479200;28;20060;-55
2023/12/14 05:51:30;;;;;;;3.80;1.13;;;18.10;86.60;;;;;;10477030;28;20059;-55
2023/12/14 05:56:32;;;;;;;3.05;1.08;;;18.10;86.80;;;;;;10478580;28;20875;-52
2023/12/14 06:01:36;;;;;;;4.05;1.00;;;18.30;86.10;;;;;;10474176;28;20789;-59
2023/12/14 06:06:39;;;;;;;2.75;1.15;;;18.20;86.60;;;;;;10481277;28;20036;-57
2023/12/14 06:11:42;;;;;;;4.35;1.10;;;18.30;86.40;;;;;;10465408;28;20617;-56
2023/12/14 06:16:45;;;;;;;2.65;1.02;;;18.40;86.30;;;;;;10474814;28;20048;-53
2023/12/14 06:21:47;;;;;;;2.47;0.75;;;18.50;86.10;;;;;;10471063;28;20903;-54
2023/12/14 06:26:49;;;;;;;5.18;1.70;;;18.50;86.00;;;;;;10468851;28;20636;-55
2023/12/14 06:31:53;;;;;;;6.68;1.20;;;18.50;85.90;;;;;;10466677;28;20171;-59
2023/12/14 06:36:55;;;;;;;4.03;1.40;;;18.60;85.80;;;;;;10474758;28;20107;-56
2023/12/14 06:41:57;;;;;;;3.40;1.33;;;18.60;85.70;;;;;;10460813;28;20063;-55
2023/12/14 06:47:00;;;;;;;4.28;1.27;;;18.50;85.70;;;;;;10459331;28;20548;-56
2023/12/14 06:52:03;;;;;;;4.15;1.40;;;18.60;85.60;;;;;;10466985;28;20127;-55
2023/12/14 06:57:05;;;;;;;4.00;1.42;;;18.60;85.60;;;;;;10460263;28;20776;-58
2023/12/14 07:02:08;;;;;;;4.95;1.30;;;18.50;85.50;;;;;;10460705;28;20142;-56
2023/12/14 07:07:12;;;;;;;5.18;1.63;;;18.60;85.50;;;;;;10479804;28;20052;-55
2023/12/14 07:12:14;;;;;;;3.05;1.08;;;18.60;85.50;;;;;;10464923;28;20060;-55
2023/12/14 07:17:18;;;;;;;2.72;1.42;;;18.60;85.40;;;;;;10470691;28;20140;-57
2023/12/14 07:22:20;;;;;;;4.80;1.58;;;18.60;85.30;;;;;;10471292;28;20047;-55
2023/12/14 07:27:22;;;;;;;6.25;1.80;;;18.60;85.30;;;;;;10463040;28;20095;-51
2023/12/14 07:32:26;;;;;;;3.10;1.20;;;18.60;85.30;;;;;;10464090;28;20052;-55
2023/12/14 07:37:29;;;;;;;7.97;1.85;;;18.60;85.20;;;;;;10463372;28;20056;-57
2023/12/14 07:42:31;;;;;;;4.38;1.70;;;18.60;85.10;;;;;;10451574;28;20765;-54
2023/12/14 07:47:34;;;;;;;;;;;18.70;85.10;;;;;;10451653;28;20956;-54
2023/12/14 07:52:36;;;;;;;7.95;1.77;;;18.60;85.10;;;;;;10454790;28;19931;-57
2023/12/14 07:57:39;;;;;;;5.38;1.90;;;18.60;85.30;;;;;;10454886;28;20052;-57
2023/12/14 08:02:42;;;;;;;6.55;2.20;;;18.50;85.30;;;;;;10456956;28;20127;-56
2023/12/14 08:07:44;;;;;;;4.00;1.83;;;18.50;85.50;;;;;;10453010;28;20155;-56
2023/12/14 08:12:47;;;;;;;4.20;1.90;;;18.40;85.50;;;;;;10451050;28;20187;-53
2023/12/14 08:17:51;;;;;;;8.65;1.77;;;18.40;85.70;;;;;;10452637;28;20163;-54
2023/12/14 08:22:53;;;;;;;3.55;2.35;;;18.40;85.70;;;;;;10459443;28;20043;-55
2023/12/14 08:27:55;;;;;;;5.10;1.40;;;18.30;85.70;;;;;;10463017;28;20703;-55
2023/12/14 08:32:59;;;;;;;3.20;1.73;;;18.30;85.70;;;;;;10463147;28;20451;-56
2023/12/14 08:38:01;;;;;;;4.63;2.30;;;18.20;85.70;;;;;;10463710;28;20056;-54
2023/12/14 08:43:03;;;;;;;3.30;1.73;;;18.30;85.70;;;;;;10465423;28;20053;-56
2023/12/14 08:48:07;;;;;;;3.20;1.75;;;18.20;85.70;;;;;;10464867;28;20470;-54
2023/12/14 08:53:11;;;;;;;4.25;1.83;;;18.20;85.80;;;;;;10461330;28;20735;-55
2023/12/14 08:58:13;;;;;;;6.47;2.10;;;18.10;85.80;;;;;;10460286;28;20059;-56
2023/12/14 09:03:16;;;;;;;3.08;1.83;;;18.10;85.80;;;;;;10464538;28;20056;-55
2023/12/14 09:08:18;;;;;;;4.60;1.92;;;18.10;85.80;;;;;;10462797;28;20215;-56
2023/12/14 09:13:21;;;;;;;3.95;1.73;;;18.00;85.70;;;;;;10466939;28;20820;-55
2023/12/14 09:18:24;;;;;;;4.60;2.58;;;18.00;85.80;;;;;;10460106;28;20052;-55
2023/12/14 09:23:26;;;;;;;3.90;1.85;;;17.90;85.80;;;;;;10470870;28;20044;-56
2023/12/14 09:28:28;;;;;;;8.45;1.67;;;17.90;85.60;;;;;;10460817;28;20037;-53
2023/12/14 09:33:32;;;;;;;4.05;2.22;;;17.90;85.70;;;;;;10465983;28;20053;-56
2023/12/14 09:38:35;;;;;;;4.57;2.50;;;17.90;85.60;;;;;;10462826;28;20129;-55
2023/12/14 09:43:38;;;;;;;3.67;2.22;;;17.90;85.70;;;;;;10455088;28;20056;-56
2023/12/14 09:48:42;;;;;;;;;;;17.90;85.70;;;;;;10461401;28;20086;-54
2023/12/14 09:53:44;;;;;;;4.90;2.58;;;17.90;85.80;;;;;;10475545;28;20321;-55
2023/12/14 09:58:46;;;;;;;9.43;2.35;;;17.90;85.80;;;;;;10463772;28;20427;-54
2023/12/14 10:03:49;;;;;;;3.22;1.77;;;18.00;85.80;;;;;;10476211;28;20052;-54
2023/12/14 10:08:56;;;;;;;3.55;2.28;;;18.00;85.90;;;;;;10463861;28;20133;-53
2023/12/14 10:13:58;;;;;;;4.40;1.88;;;18.00;85.70;;;;;;10468252;28;20189;-52
2023/12/14 10:19:01;;;;;;;7.88;2.50;;;18.10;85.60;;;;;;10458996;28;20048;-56
2023/12/14 10:24:04;;;;;;;4.15;1.77;;;18.00;85.60;;;;;;10468249;28;20137;-52
2023/12/14 10:29:06;;;;;;;3.25;2.03;;;18.00;85.30;;;;;;10455419;28;20118;-51
2023/12/14 10:34:12;;;;;;;5.07;2.35;;;18.00;85.80;;;;;;10462412;28;20915;-55
2023/12/14 10:39:19;;;;;;;4.32;1.58;;;18.00;85.90;;;;;;10459103;28;20439;-54
2023/12/14 10:44:22;;;;;;;7.50;1.80;;;17.90;86.10;;;;;;10464418;28;20058;-55
2023/12/14 10:49:26;;;;;;;4.90;2.78;;;18.00;86.20;;;;;;10466059;28;20063;-54
2023/12/14 10:54:31;;;;;;;4.32;2.00;;;17.90;86.10;;;;;;10471062;28;20048;-53
2023/12/14 10:59:34;;;;;;;3.90;1.95;;;17.90;86.20;;;;;;10469523;28;20103;-56
2023/12/14 11:04:55;;;;;;;4.32;2.20;;;17.90;86.30;;;;;;10474318;28;20047;-54
2023/12/14 11:09:57;;;;;;;5.18;1.85;;;17.80;86.20;;;;;;10474773;28;20185;-54
2023/12/14 11:15:00;;;;;;;5.03;2.80;;;17.80;86.10;;;;;;10468496;28;20130;-53
2023/12/14 11:20:25;;;;;;;4.72;2.88;;;17.90;85.50;;;;;;10458618;28;21364;-54
2023/12/14 11:25:26;;;;;;;10.13;5.22;;;17.50;86.10;;;;;;10458803;28;20052;-53
2023/12/14 11:30:29;;;;;;;11.68;5.35;;;16.80;81.80;;;;;;10464245;28;20105;-55
2023/12/14 11:35:33;;;;;;;8.43;3.35;;;15.90;90.30;;;;;;10451860;28;20068;-54
2023/12/14 11:40:35;;;;;;;7.30;3.13;;;16.90;88.20;;;;;;10468941;28;20060;-55
2023/12/14 11:45:38;;;;;;;5.93;3.03;;;16.70;89.20;;;;;;10464892;28;20621;-52
2023/12/14 11:50:44;;;;;;;8.13;3.83;;;16.60;89.40;;;;;;10473628;28;20048;-55
2023/12/14 11:55:46;;;;;;;9.60;4.10;;;16.30;89.40;;;;;;10464317;28;20045;-54
2023/12/14 12:00:48;;;;;;;9.45;4.60;;;16.70;87.30;;;;;;10465592;28;20055;-53
2023/12/14 12:05:53;;;;;;;11.05;5.38;;;14.70;90.90;;;;;;10463109;28;20534;-54
2023/12/14 12:10:57;;;;;;;10.30;4.80;;;13.70;92.90;;;;;;10464688;28;20056;-55
2023/12/14 12:15:59;;;;;;;7.55;4.20;;;15.50;94.10;;;;;;10463840;28;20055;-56
2023/12/14 12:21:06;;;;;;;9.17;4.10;;;15.80;92.50;;;;;;10455178;28;20059;-51
2023/12/14 12:26:08;;;;;;;9.35;4.20;;;16.80;90.40;;;;;;10466779;28;20076;-53
2023/12/14 12:31:10;;;;;;;7.90;3.33;;;16.70;90.50;;;;;;10467891;28;20056;-54
2023/12/14 12:36:13;;;;;;;3.37;2.23;;;17.00;90.00;;;;;;10467523;28;20880;-52
2023/12/14 12:41:15;;;;;;;8.18;3.42;;;16.70;90.70;;;;;;10483979;28;20048;-53
2023/12/14 12:46:18;;;;;;;6.93;2.53;;;17.40;88.40;;;;;;10470449;28;20063;-51
2023/12/14 12:51:21;;;;;;;6.32;2.17;;;17.20;88.70;;;;;;10481261;28;20053;-53
2023/12/14 12:56:23;;;;;;;5.03;2.55;;;17.40;87.80;;;;;;10469916;28;20762;-51
2023/12/14 13:01:26;;;;;;;4.55;2.63;;;17.30;87.90;;;;;;10470344;28;20348;-55
2023/12/14 13:06:29;;;;;;;6.43;3.05;;;16.60;89.70;;;;;;10485704;28;20056;-53
2023/12/14 13:11:31;;;;;;;4.30;2.40;;;16.90;89.70;;;;;;10474996;28;20502;-56
2023/12/14 13:16:33;;;;;;;5.80;2.65;;;16.40;90.90;;;;;;10485271;28;20044;-55
2023/12/14 13:21:37;;;;;;;6.40;2.10;;;16.30;89.30;;;;;;10463062;28;20048;-54
2023/12/14 13:26:39;;;;;;;9.18;2.65;;;16.90;90.20;;;;;;10471083;28;20145;-52
2023/12/14 13:31:41;;;;;;;6.47;3.13;;;17.10;89.10;;;;;;10463356;28;20655;-55
2023/12/14 13:36:44;;;;;;;7.13;2.15;;;16.80;89.60;;;;;;10468823;28;20528;-55
2023/12/14 13:41:46;;;;;;;5.82;2.20;;;17.20;88.80;;;;;;10472496;28;20053;-53
2023/12/14 13:46:48;;;;;;;7.70;2.57;;;15.00;91.50;;;;;;10470246;28;20976;-54
2023/12/14 13:51:51;;;;;;;7.37;2.57;;;15.90;93.60;;;;;;10473599;28;20055;-55
2023/12/14 13:56:54;;;;;;;4.85;2.00;;;15.60;93.00;;;;;;10471461;28;20049;-55
2023/12/14 14:01:56;;;;;;;5.78;2.05;;;15.20;94.60;;;;;;10468823;28;20041;-56
2023/12/14 14:06:59;;;;;;;5.32;2.17;;;15.10;94.80;;;;;;10469959;28;20051;-52
2023/12/14 14:12:01;;;;;;;9.07;1.70;;;12.90;89.40;;;;;;10460991;28;20835;-55
2023/12/14 14:17:06;;;;;;;7.60;1.50;;;13.80;92.40;;;;;;10469354;28;20051;-53
2023/12/14 14:22:10;;;;;;;3.28;1.20;;;13.00;92.30;;;;;;10478851;28;20368;-51
2023/12/14 14:27:12;;;;;;;2.78;1.50;;;12.10;99.90;;;;;;10465589;28;20056;-52
2023/12/14 14:32:14;;;;;;;5.57;1.17;;;12.60;98.80;;;;;;10473567;28;20063;-53
2023/12/14 14:37:18;;;;;;;5.03;1.23;;;12.00;97.60;;;;;;10473380;28;20052;-50
2023/12/14 14:42:20;;;;;;;2.42;1.30;;;12.60;94.40;;;;;;10475940;28;20466;-56
2023/12/14 14:47:23;;;;;;;7.70;1.10;;;14.50;95.30;;;;;;10459729;28;20660;-53
2023/12/14 14:52:27;;;;;;;9.90;1.90;;;14.90;96.50;;;;;;10457524;28;20091;-56
2023/12/14 14:57:29;;;;;;;3.65;1.17;;;14.30;90.80;;;;;;10466758;28;20122;-55
2023/12/14 15:02:31;;;;;;;4.17;1.13;;;12.80;99.90;;;;;;10465738;28;20063;-56
2023/12/14 15:07:34;;;;;;;4.45;1.27;;;13.00;98.00;;;;;;10466386;28;20463;-55
2023/12/14 15:12:36;;;;;;;9.32;1.23;;;11.90;99.90;;;;;;10465740;28;20133;-55
2023/12/14 15:17:38;;;;;;;4.65;1.50;;;13.60;99.90;;;;;;10468618;28;20071;-57
2023/12/14 15:22:42;;;;;;;4.50;1.35;;;12.70;99.90;;;;;;10461273;28;20098;-56
2023/12/14 15:27:44;;;;;;;5.97;1.60;;;12.30;99.90;;;;;;10467128;28;20048;-56
2023/12/14 15:32:46;;;;;;;9.20;1.50;;;12.70;95.90;;;;;;10465201;28;20070;-56
2023/12/14 15:37:49;;;;;;;9.87;1.67;;;13.10;99.90;;;;;;10466732;28;20832;-55
2023/12/14 15:42:55;;;;;;;3.75;1.13;;;13.30;99.90;;;;;;10470844;28;20062;-54
2023/12/14 15:47:57;;;;;;;4.00;1.50;;;15.00;99.00;;;;;;10461597;28;20056;-55
2023/12/14 15:53:01;;;;;;;5.60;1.27;;;15.70;97.90;;;;;;10476310;28;20064;-56
2023/12/14 15:58:03;;;;;;;7.22;2.35;;;16.50;94.80;;;;;;10467257;28;20128;-57
2023/12/14 16:03:05;;;;;;;3.90;1.75;;;15.00;97.50;;;;;;10462957;28;20056;-56
2023/12/14 16:08:08;;;;;;;6.03;2.20;;;14.90;96.20;;;;;;10478688;28;20051;-55
2023/12/14 16:13:11;;;;;;;6.65;1.27;;;13.00;90.60;;;;;;10463690;28;20202;-56
2023/12/14 16:18:14;;;;;;;6.28;1.63;;;13.80;95.70;;;;;;10462600;28;20053;-52
2023/12/14 16:23:17;;;;;;;2.83;1.15;;;13.70;93.90;;;;;;10464107;28;20056;-54
2023/12/14 16:28:20;;;;;;;5.90;1.40;;;15.10;99.40;;;;;;10452635;28;20138;-55
2023/12/14 16:33:22;;;;;;;;;;;17.00;94.40;;;;;;10458935;28;20621;-54
2023/12/14 16:38:25;;;;;;;9.10;2.83;;;16.30;93.60;;;;;;10458036;28;19921;-55
2023/12/14 16:43:29;;;;;;;9.68;1.95;;;14.80;96.00;;;;;;10474274;28;20464;-55
2023/12/14 16:48:31;;;;;;;3.95;1.67;;;13.20;99.90;;;;;;10472440;28;20053;-54
2023/12/14 16:53:34;;;;;;;5.40;1.77;;;16.30;96.80;;;;;;10470065;28;20166;-55
2023/12/14 16:58:38;;;;;;;6.13;2.25;;;16.50;81.10;;;;;;10457701;28;20094;-52
2023/12/14 17:03:40;;;;;;;4.72;2.25;;;15.90;85.80;;;;;;10463630;28;20406;-54
2023/12/14 17:08:43;;;;;;;4.10;1.87;;;13.80;95.20;;;;;;10462411;28;20211;-56
2023/12/14 17:13:45;;;;;;;5.93;1.92;;;13.60;99.90;;;;;;10468984;28;20496;-53
2023/12/14 17:18:48;;;;;;;6.33;2.53;;;16.30;96.40;;;;;;10464950;28;20048;-55
2023/12/14 17:23:52;;;;;;;8.65;3.38;;;16.30;84.90;;;;;;10479759;28;20060;-55
2023/12/14 17:28:56;;;;;;;8.30;3.35;;;13.50;97.60;;;;;;10481136;28;20479;-55
2023/12/14 17:33:58;;;;;;;7.43;1.80;;;12.40;98.50;;;;;;10465566;28;20946;-56
2023/12/14 17:39:01;;;;;;;6.40;3.10;;;11.30;97.00;;;;;;10470627;28;20084;-52
2023/12/14 17:44:03;;;;;;;7.82;4.82;;;10.30;99.90;;;;;;10468093;28;20388;-55
2023/12/14 17:49:06;;;;;;;6.57;2.35;;;10.90;99.90;;;;;;10462572;28;20064;-54
2023/12/14 17:54:10;;;;;;;10.70;3.28;;;11.70;99.90;;;;;;10459164;28;20140;-53
2023/12/14 17:59:12;;;;;;;9.73;2.97;;;15.20;99.90;;;;;;10466488;28;20045;-56
2023/12/14 18:04:14;;;;;;;9.90;1.77;;;16.80;96.70;;;;;;10472335;28;20052;-53
2023/12/14 18:09:18;;;;;;;5.38;1.92;;;16.70;91.80;;;;;;10453442;28;20893;-54
2023/12/14 18:14:20;;;;;;;5.65;1.83;;;15.20;87.80;;;;;;10457846;28;20060;-55
2023/12/14 18:19:27;;;;;;;8.52;1.88;;;11.80;99.90;;;;;;10465925;28;20091;-57
2023/12/14 18:24:30;;;;;;;4.93;1.95;;;10.20;99.90;;;;;;10469309;28;20103;-53
2023/12/14 18:29:32;;;;;;;10.10;1.70;;;9.50;99.90;;;;;;10458295;28;20094;-56
2023/12/14 18:34:35;;;;;;;4.07;1.65;;;9.20;99.90;;;;;;10466338;28;20814;-54
2023/12/14 18:39:39;;;;;;;4.93;1.33;;;9.30;99.90;;;;;;10470640;28;20059;-57
2023/12/14 18:44:41;;;;;;;5.38;1.55;;;8.90;99.90;;;;;;10475945;28;20044;-56
2023/12/14 18:49:43;;;;;;;7.80;2.20;;;10.20;99.90;;;;;;10465584;28;20533;-54
2023/12/14 18:54:47;;;;;;;9.98;2.45;;;10.70;99.90;;;;;;10470594;28;20055;-53
2023/12/14 18:59:49;;;;;;;11.57;2.40;;;9.70;99.90;;;;;;10465589;28;20201;-55
2023/12/14 19:04:51;;;;;;;14.52;2.90;;;9.00;99.90;;;;;;10455564;28;20056;-53
2023/12/14 19:09:54;;;;;;;7.20;2.65;;;9.00;99.90;;;;;;10461255;28;20059;-55
2023/12/14 19:14:56;;;;;;;8.55;3.22;;;10.70;99.90;;;;;;10467611;28;20047;-53
2023/12/14 19:19:58;;;;;;;12.10;2.53;;;11.70;99.90;;;;;;10447827;28;20135;-56
2023/12/14 19:25:02;;;;;;;11.90;2.73;;;15.20;99.90;;;;;;10460689;28;20079;-58
2023/12/14 19:30:05;;;;;;;7.78;3.03;;;16.30;99.90;;;;;;10465067;28;20041;-55
2023/12/14 19:35:07;;;;;;;7.40;2.50;;;17.20;97.10;;;;;;10464604;28;20401;-53
2023/12/14 19:40:13;;;;;;;7.70;2.92;;;17.10;96.40;;;;;;10470217;28;20129;-54
2023/12/14 19:45:15;;;;;;;7.82;2.92;;;17.20;95.70;;;;;;10457427;28;20520;-57
2023/12/14 19:50:17;;;;;;;5.32;1.77;;;17.50;94.60;;;;;;10447857;28;20057;-55
2023/12/14 19:55:21;;;;;;;6.50;2.43;;;17.40;94.30;;;;;;10449290;28;20048;-61
2023/12/14 20:00:23;;;;;;;4.93;1.98;;;17.70;93.60;;;;;;10462329;28;20514;-60
2023/12/14 20:05:26;;;;;;;3.38;1.95;;;18.00;92.80;;;;;;10453500;28;20175;-60
2023/12/14 20:10:29;;;;;;;5.40;1.60;;;18.00;92.20;;;;;;10468217;28;20224;-60
2023/12/14 20:15:31;;;;;;;4.95;1.77;;;18.10;91.70;;;;;;10463064;28;20052;-58
2023/12/14 20:20:33;;;;;;;3.88;1.85;;;18.10;91.60;;;;;;10465173;28;20048;-57
2023/12/14 20:25:38;;;;;;;6.35;2.03;;;18.00;91.40;;;;;;10461385;28;20075;-58
2023/12/14 20:30:40;;;;;;;4.57;2.15;;;18.00;91.30;;;;;;10463501;28;20052;-57
2023/12/14 20:35:42;;;;;;;6.75;1.95;;;17.50;91.90;;;;;;10463872;28;20084;-57
2023/12/14 20:40:45;;;;;;;12.40;2.15;;;17.00;93.60;;;;;;10462025;28;20068;-59
2023/12/14 20:45:47;;;;;;;4.47;2.25;;;17.10;93.50;;;;;;10460228;28;20086;-59
2023/12/14 20:50:50;;;;;;;5.40;1.97;;;17.50;92.50;;;;;;10449900;28;20052;-58
2023/12/14 20:55:55;;;;;;;6.97;2.50;;;17.60;91.50;;;;;;10461776;28;20497;-57
2023/12/14 21:00:57;;;;;;;10.13;2.75;;;16.30;93.40;;;;;;10465936;28;20544;-56
2023/12/14 21:05:59;;;;;;;9.00;2.47;;;15.80;96.50;;;;;;10466394;28;20051;-57
2023/12/14 21:11:03;;;;;;;;;;;15.60;97.50;;;;;;10462957;28;20047;-58
2023/12/14 21:16:05;;;;;;;11.52;4.10;;;13.80;99.00;;;;;;10474661;28;20876;-58
2023/12/14 21:21:08;;;;;;;14.48;6.22;;;13.70;99.90;;;;;;10456153;28;20051;-58
2023/12/14 21:26:15;;;;;;;13.07;6.07;;;14.30;99.70;;;;;;10465349;28;20080;-57
2023/12/14 21:31:17;;;;;;;16.60;6.15;;;14.10;99.90;;;;;;10482233;28;20086;-55
2023/12/14 21:36:19;;;;;;;13.80;6.77;;;14.30;99.90;;;;;;10472122;28;20510;-56
2023/12/14 21:41:23;;;;;;;17.43;6.53;;;14.50;99.90;;;;;;10477077;28;20079;-55
2023/12/14 21:46:25;;;;;;;16.50;6.80;;;14.90;99.90;;;;;;10467909;28;20047;-55
2023/12/14 21:51:27;;;;;;;15.32;6.80;;;15.20;97.30;;;;;;10473934;28;20240;-54
2023/12/14 21:56:31;;;;;;;16.92;7.07;;;14.60;99.90;;;;;;10476044;28;20052;-54
2023/12/14 22:01:33;;;;;;;10.57;7.15;;;14.60;99.90;;;;;;10472580;28;20086;-57
2023/12/14 22:06:35;;;;;;;12.07;6.70;;;16.00;99.00;;;;;;10474310;28;20145;-57
2023/12/14 22:11:38;;;;;;;16.30;6.73;;;16.50;96.80;;;;;;10478981;28;20059;-60
2023/12/14 22:16:40;;;;;;;13.13;6.03;;;14.90;99.90;;;;;;10478615;28;20136;-59
2023/12/14 22:21:42;;;;;;;14.90;6.32;;;16.70;96.90;;;;;;10475388;28;20222;-57
2023/12/14 22:26:46;;;;;;;16.85;7.32;;;15.40;98.40;;;;;;10474079;28;20530;-55
2023/12/14 22:31:49;;;;;;;19.92;8.52;;;14.10;99.90;;;;;;10467684;28;20534;-57
2023/12/14 22:36:51;;;;;;;19.77;7.73;;;13.50;99.50;;;;;;10473653;28;20190;-57
2023/12/14 22:41:54;;;;;;;19.27;7.43;;;13.50;99.90;;;;;;10467157;28;20072;-59
2023/12/14 22:46:56;;;;;;;15.63;8.27;;;14.90;99.90;;;;;;10456433;28;21074;-57
2023/12/14 22:51:58;;;;;;;8.53;4.17;;;14.30;99.10;;;;;;10466881;28;20357;-57
2023/12/14 22:57:01;;;;;;;12.37;3.73;;;15.00;99.90;;;;;;10483109;28;20050;-57
2023/12/14 23:02:04;;;;;;;7.28;4.63;;;15.80;99.90;;;;;;10466618;28;20044;-58
2023/12/14 23:07:05;;;;;;;14.20;4.82;;;16.90;96.00;;;;;;10470759;28;20518;-58
2023/12/14 23:12:10;;;;;;;14.43;5.67;;;17.10;94.60;;;;;;10483319;28;20117;-57
2023/12/14 23:17:12;;;;;;;8.15;3.47;;;17.40;93.70;;;;;;10477009;28;20489;-60
2023/12/14 23:22:14;;;;;;;11.05;5.20;;;17.40;93.30;;;;;;10471256;28;22960;-59
2023/12/14 23:27:17;;;;;;;8.77;4.53;;;17.40;93.10;;;;;;10475053;28;20836;-56
2023/12/14 23:32:19;;;;;;;6.95;3.60;;;17.40;92.50;;;;;;10476361;28;21059;-57
2023/12/14 23:37:21;;;;;;;5.57;3.37;;;17.40;92.60;;;;;;10468952;28;20595;-55
2023/12/14 23:42:24;;;;;;;7.60;3.60;;;17.40;92.20;;;;;;10482476;28;20445;-58
2023/12/14 23:47:26;;;;;;;7.25;4.07;;;17.50;91.80;;;;;;10479825;28;20867;-55
2023/12/14 23:52:28;;;;;;;12.57;4.32;;;17.50;91.60;;;;;;10475394;28;20048;-56
2023/12/14 23:57:32;;;;;;;5.78;2.92;;;17.50;91.60;;;;;;10462346;28;20177;-58
